createdAt,value
2018-08-09T00:01:03.904Z,8.07
2018-08-09T00:03:32.753Z,8.50
2018-08-09T00:06:01.742Z,8.30
2018-08-09T00:08:31.038Z,8.50
2018-08-09T00:11:00.154Z,8.00
2018-08-09T00:13:29.448Z,8.30
2018-08-09T00:15:58.738Z,8.23
2018-08-09T00:18:27.874Z,8.50
2018-08-09T00:20:57.212Z,9.90
2018-08-09T00:23:26.314Z,9.80
2018-08-09T00:25:55.133Z,9.17
2018-08-09T00:28:24.113Z,8.60
2018-08-09T00:30:53.194Z,8.53
2018-08-09T00:33:22.340Z,9.33
2018-08-09T00:35:51.478Z,8.90
2018-08-09T00:38:20.814Z,9.67
2018-08-09T00:40:49.715Z,9.27
2018-08-09T00:43:18.387Z,9.53
2018-08-09T00:45:47.698Z,9.37
2018-08-09T00:48:16.745Z,9.30
2018-08-09T00:50:46.102Z,10.00
2018-08-09T00:53:15.291Z,9.83
2018-08-09T00:55:44.522Z,9.77
2018-08-09T00:58:13.589Z,10.47
2018-08-09T01:00:42.694Z,10.90
2018-08-09T01:03:11.723Z,11.13
2018-08-09T01:05:40.766Z,11.03
2018-08-09T01:08:10.036Z,10.43
2018-08-09T01:10:39.344Z,10.93
2018-08-09T01:13:08.458Z,10.80
2018-08-09T01:15:37.652Z,10.70
2018-08-09T01:18:08.470Z,11.17
2018-08-09T01:20:37.455Z,10.50
2018-08-09T01:23:06.506Z,9.97
2018-08-09T01:25:35.746Z,9.97
2018-08-09T01:28:04.969Z,9.57
2018-08-09T01:30:34.061Z,9.83
2018-08-09T01:33:03.163Z,10.60
2018-08-09T01:35:32.341Z,9.60
2018-08-09T01:38:01.474Z,9.73
2018-08-09T01:40:30.580Z,9.67
2018-08-09T01:43:10.647Z,9.57
2018-08-09T01:45:39.993Z,10.17
2018-08-09T01:48:09.244Z,9.90
2018-08-09T01:50:38.486Z,9.67
2018-08-09T01:53:07.527Z,9.67
2018-08-09T01:55:36.658Z,9.40
2018-08-09T01:58:05.766Z,9.63
2018-08-09T02:00:34.866Z,9.77
2018-08-09T02:03:03.902Z,9.27
2018-08-09T02:05:33.030Z,9.20
2018-08-09T02:08:02.163Z,9.07
2018-08-09T02:10:31.005Z,8.87
2018-08-09T02:13:00.102Z,9.20
2018-08-09T02:15:29.199Z,9.90
2018-08-09T02:17:58.466Z,10.40
2018-08-09T02:20:27.470Z,10.17
2018-08-09T02:22:56.541Z,9.93
2018-08-09T02:25:25.790Z,10.73
2018-08-09T02:27:54.745Z,10.97
2018-08-09T02:30:23.796Z,11.97
2018-08-09T02:32:52.982Z,11.07
2018-08-09T02:35:22.218Z,11.57
2018-08-09T02:37:51.536Z,11.97
2018-08-09T02:40:20.614Z,11.10
2018-08-09T02:42:49.808Z,11.10
2018-08-09T02:45:18.710Z,10.00
2018-08-09T02:47:47.996Z,10.83
2018-08-09T02:50:17.213Z,11.30
2018-08-09T02:52:46.090Z,10.77
2018-08-09T02:55:15.150Z,10.67
2018-08-09T02:57:44.126Z,10.50
2018-08-09T03:00:13.242Z,10.40
2018-08-09T03:02:42.104Z,10.83
2018-08-09T03:05:11.348Z,9.87
2018-08-09T03:07:40.598Z,11.17
2018-08-09T03:10:09.697Z,10.70
2018-08-09T03:12:38.870Z,10.17
2018-08-09T03:15:08.153Z,11.17
2018-08-09T03:17:37.150Z,10.77
2018-08-09T03:20:06.161Z,10.17
2018-08-09T03:22:35.063Z,10.07
2018-08-09T03:25:04.312Z,10.27
2018-08-09T03:27:33.407Z,10.23
2018-08-09T03:30:02.654Z,10.70
2018-08-09T03:32:31.750Z,10.77
2018-08-09T03:35:00.845Z,10.47
2018-08-09T03:37:30.132Z,9.67
2018-08-09T03:39:59.260Z,10.27
2018-08-09T03:42:28.376Z,10.93
2018-08-09T03:44:57.450Z,10.97
2018-08-09T03:47:26.184Z,10.67
2018-08-09T03:49:55.027Z,10.87
2018-08-09T03:52:24.261Z,10.63
2018-08-09T03:54:53.133Z,10.80
2018-08-09T03:57:22.179Z,10.27
2018-08-09T03:59:51.426Z,10.00
2018-08-09T04:02:20.509Z,11.13
2018-08-09T04:04:49.250Z,10.53
2018-08-09T04:07:18.222Z,10.77
2018-08-09T04:09:47.545Z,10.67
2018-08-09T04:12:16.646Z,9.83
2018-08-09T04:14:45.785Z,11.50
2018-08-09T04:17:19.886Z,11.47
2018-08-09T04:19:50.022Z,10.63
2018-08-09T04:22:19.614Z,10.67
2018-08-09T04:24:48.974Z,10.17
2018-08-09T04:27:18.063Z,11.00
2018-08-09T04:29:47.261Z,10.20
2018-08-09T04:32:16.362Z,9.63
2018-08-09T04:34:45.503Z,10.90
2018-08-09T04:37:14.459Z,10.20
2018-08-09T04:39:43.586Z,10.33
2018-08-09T04:42:12.718Z,10.47
2018-08-09T04:44:41.974Z,10.20
2018-08-09T04:47:11.208Z,10.30
2018-08-09T04:49:40.136Z,10.60
2018-08-09T04:52:09.211Z,10.80
2018-08-09T04:54:38.081Z,10.60
2018-08-09T04:57:07.098Z,10.70
2018-08-09T04:59:36.123Z,10.87
2018-08-09T05:02:05.423Z,10.47
2018-08-09T05:04:34.623Z,11.03
2018-08-09T05:07:03.509Z,10.00
2018-08-09T05:09:32.714Z,10.90
2018-08-09T05:12:01.837Z,10.67
2018-08-09T05:14:30.848Z,9.77
2018-08-09T05:16:59.934Z,10.87
2018-08-09T05:19:29.163Z,10.27
2018-08-09T05:21:58.026Z,10.40
2018-08-09T05:24:26.843Z,10.10
2018-08-09T05:26:55.702Z,10.20
2018-08-09T05:29:24.955Z,10.20
2018-08-09T05:31:54.235Z,10.30
2018-08-09T05:34:23.070Z,10.60
2018-08-09T05:36:52.231Z,9.90
2018-08-09T05:39:20.934Z,10.10
2018-08-09T05:41:49.942Z,9.67
2018-08-09T05:44:18.966Z,10.77
2018-08-09T05:46:48.058Z,9.93
2018-08-09T05:49:17.199Z,9.80
2018-08-09T05:51:46.041Z,10.90
2018-08-09T05:54:15.233Z,10.20
2018-08-09T05:56:44.294Z,12.30
2018-08-09T05:59:13.382Z,14.30
2018-08-09T06:01:42.555Z,75.07
2018-08-09T06:04:11.606Z,18.17
2018-08-09T06:06:40.810Z,10.70
2018-08-09T06:09:11.162Z,10.80
2018-08-09T06:11:39.954Z,11.13
2018-08-09T06:14:09.870Z,10.60
2018-08-09T06:16:39.175Z,9.43
2018-08-09T06:19:08.530Z,9.20
2018-08-09T06:21:37.678Z,9.60
2018-08-09T06:24:06.908Z,10.17
2018-08-09T06:26:36.047Z,9.00
2018-08-09T06:29:05.151Z,10.07
2018-08-09T06:31:34.159Z,8.67
2018-08-09T06:34:03.393Z,8.10
2018-08-09T06:36:32.458Z,7.57
2018-08-09T06:39:01.787Z,7.50
2018-08-09T06:41:30.826Z,8.63
2018-08-09T06:43:59.670Z,7.40
2018-08-09T06:46:28.495Z,6.77
2018-08-09T06:48:57.756Z,7.07
2018-08-09T06:51:26.794Z,7.07
2018-08-09T06:53:55.845Z,7.40
2018-08-09T06:56:24.935Z,6.93
2018-08-09T06:58:54.096Z,7.60
2018-08-09T07:01:23.309Z,7.07
2018-08-09T07:03:52.514Z,7.07
2018-08-09T07:06:21.459Z,6.97
2018-08-09T07:08:50.442Z,7.37
2018-08-09T07:11:19.645Z,6.87
2018-08-09T07:13:48.838Z,7.63
2018-08-09T07:16:17.530Z,7.20
2018-08-09T07:18:46.511Z,7.50
2018-08-09T07:21:15.394Z,7.40
2018-08-09T07:23:44.457Z,6.57
2018-08-09T07:26:13.459Z,7.53
2018-08-09T07:28:42.683Z,7.37
2018-08-09T07:31:11.551Z,7.33
2018-08-09T07:33:40.413Z,7.00
2018-08-09T07:36:09.732Z,7.23
2018-08-09T07:38:38.910Z,7.60
2018-08-09T07:41:08.014Z,7.00
2018-08-09T07:43:36.939Z,6.90
2018-08-09T07:46:06.240Z,6.80
2018-08-09T07:48:35.155Z,7.43
2018-08-09T07:51:04.159Z,7.70
2018-08-09T07:53:33.470Z,6.83
2018-08-09T07:56:02.610Z,6.93
2018-08-09T07:58:31.780Z,7.53
2018-08-09T08:01:00.868Z,7.80
2018-08-09T08:03:29.986Z,7.57
2018-08-09T08:05:58.921Z,7.40
2018-08-09T08:08:28.158Z,7.37
2018-08-09T08:10:57.239Z,7.23
2018-08-09T08:13:26.288Z,6.60
2018-08-09T08:15:55.448Z,6.47
2018-08-09T08:18:24.718Z,6.70
2018-08-09T08:20:53.835Z,5.70
2018-08-09T08:23:22.898Z,6.20
2018-08-09T08:25:51.889Z,6.23
2018-08-09T08:28:20.982Z,5.97
2018-08-09T08:30:49.814Z,5.93
2018-08-09T08:33:18.754Z,5.63
2018-08-09T08:35:47.926Z,4.73
2018-08-09T08:38:17.775Z,4.03
2018-08-09T08:40:46.873Z,4.80
2018-08-09T08:43:16.138Z,4.70
2018-08-09T08:45:45.493Z,5.17
2018-08-09T08:48:14.665Z,5.23
2018-08-09T08:50:43.839Z,4.50
2018-08-09T08:53:13.121Z,4.33
2018-08-09T08:55:42.366Z,4.17
2018-08-09T08:58:11.303Z,4.40
2018-08-09T09:00:40.534Z,3.67
2018-08-09T09:03:09.706Z,3.67
2018-08-09T09:05:38.670Z,3.77
2018-08-09T09:08:07.698Z,4.33
2018-08-09T09:10:36.922Z,4.00
2018-08-09T09:13:05.843Z,3.90
2018-08-09T09:15:34.911Z,4.00
2018-08-09T09:18:04.079Z,4.10
2018-08-09T09:20:33.179Z,4.08
2018-08-09T09:23:02.195Z,3.65
2018-08-09T09:25:31.359Z,3.98
2018-08-09T09:28:00.590Z,4.05
2018-08-09T09:30:29.520Z,3.80
2018-08-09T09:32:58.683Z,4.05
2018-08-09T09:35:27.481Z,3.62
2018-08-09T09:37:56.783Z,3.70
2018-08-09T09:40:25.818Z,3.90
2018-08-09T09:42:54.990Z,3.42
2018-08-09T09:45:23.830Z,3.60
2018-08-09T09:47:52.981Z,3.10
2018-08-09T09:50:22.252Z,3.00
2018-08-09T09:52:51.343Z,3.50
2018-08-09T09:55:20.367Z,3.65
2018-08-09T09:57:49.619Z,3.52
2018-08-09T10:00:23.762Z,3.58
2018-08-09T10:02:52.840Z,3.62
2018-08-09T10:05:21.914Z,4.00
2018-08-09T10:07:51.175Z,3.87
2018-08-09T10:10:20.062Z,3.35
2018-08-09T10:12:49.090Z,3.33
2018-08-09T10:15:18.040Z,3.20
2018-08-09T10:17:47.240Z,3.15
2018-08-09T10:20:16.322Z,3.45
2018-08-09T10:22:45.518Z,3.70
2018-08-09T10:25:14.399Z,3.17
2018-08-09T10:27:43.406Z,3.17
2018-08-09T10:30:12.243Z,3.83
2018-08-09T10:32:41.382Z,3.83
2018-08-09T10:35:10.582Z,3.65
2018-08-09T10:37:39.859Z,3.40
2018-08-09T10:40:09.251Z,3.50
2018-08-09T10:42:38.553Z,3.72
2018-08-09T10:45:07.956Z,3.30
2018-08-09T10:47:36.965Z,3.10
2018-08-09T10:50:06.352Z,3.75
2018-08-09T10:52:35.523Z,3.50
2018-08-09T10:55:05.014Z,2.80
2018-08-09T10:57:34.251Z,3.40
2018-08-09T11:00:04.189Z,3.40
2018-08-09T11:02:33.036Z,3.37
2018-08-09T11:05:02.010Z,3.22
2018-08-09T11:07:30.845Z,3.75
2018-08-09T11:10:00.065Z,3.65
2018-08-09T11:12:29.151Z,3.50
2018-08-09T11:14:58.313Z,3.65
2018-08-09T11:17:27.227Z,3.35
2018-08-09T11:19:56.597Z,3.60
2018-08-09T11:22:25.630Z,3.92
2018-08-09T11:24:54.822Z,3.40
2018-08-09T11:27:24.026Z,4.15
2018-08-09T11:29:53.240Z,3.30
2018-08-09T11:32:22.393Z,3.30
2018-08-09T11:34:51.498Z,3.25
2018-08-09T11:37:20.689Z,3.20
2018-08-09T11:39:49.803Z,3.45
2018-08-09T11:42:18.619Z,3.00
2018-08-09T11:44:47.971Z,3.02
2018-08-09T11:47:16.939Z,3.27
2018-08-09T11:49:46.287Z,3.37
2018-08-09T11:52:15.467Z,3.92
2018-08-09T11:54:44.812Z,3.40
2018-08-09T11:57:13.829Z,3.67
2018-08-09T11:59:43.005Z,3.60
2018-08-09T12:02:12.223Z,3.30
2018-08-09T12:04:41.056Z,3.20
2018-08-09T12:07:10.593Z,3.58
2018-08-09T12:09:39.855Z,3.25
2018-08-09T12:12:09.159Z,3.30
2018-08-09T12:14:38.478Z,3.20
2018-08-09T12:17:07.595Z,2.70
2018-08-09T12:19:36.690Z,3.33
2018-08-09T12:22:05.965Z,3.20
2018-08-09T12:24:35.289Z,3.55
2018-08-09T12:27:04.262Z,3.20
2018-08-09T12:29:33.370Z,3.35
2018-08-09T12:32:02.657Z,3.60
2018-08-09T12:34:31.678Z,3.33
2018-08-09T12:37:00.926Z,3.55
2018-08-09T12:39:30.034Z,3.40
2018-08-09T12:41:59.223Z,3.08
2018-08-09T12:44:28.495Z,3.40
2018-08-09T12:46:57.808Z,2.98
2018-08-09T12:49:27.019Z,3.70
2018-08-09T12:51:56.275Z,3.40
2018-08-09T12:54:25.502Z,3.47
2018-08-09T12:56:54.767Z,2.80
2018-08-09T12:59:24.035Z,3.17
2018-08-09T13:01:53.219Z,3.17
2018-08-09T13:04:22.274Z,3.25
2018-08-09T13:06:51.618Z,3.12
2018-08-09T13:09:20.933Z,3.10
2018-08-09T13:11:49.906Z,3.00
2018-08-09T13:14:19.162Z,3.10
2018-08-09T13:16:48.428Z,4.35
2018-08-09T13:19:17.514Z,3.98
2018-08-09T13:21:46.795Z,3.90
2018-08-09T13:24:16.034Z,3.10
2018-08-09T13:26:44.874Z,2.92
2018-08-09T13:29:13.985Z,3.00
2018-08-09T13:31:43.327Z,2.98
2018-08-09T13:34:12.438Z,2.83
2018-08-09T14:04:52.094Z,3.00
2018-08-09T14:07:21.048Z,2.62
2018-08-09T14:25:36.446Z,2.83
2018-08-09T14:28:05.651Z,3.10
2018-08-09T14:30:34.377Z,3.10
2018-08-09T14:33:03.602Z,3.30
2018-08-09T14:35:32.332Z,2.90
2018-08-09T14:38:01.029Z,2.90
2018-08-09T14:40:30.042Z,2.83
2018-08-09T14:42:59.203Z,2.80
2018-08-09T14:45:28.437Z,2.40
2018-08-09T14:47:57.305Z,2.60
2018-08-09T14:50:26.073Z,2.43
2018-08-09T14:52:54.850Z,2.60
2018-08-09T14:55:23.625Z,2.90
2018-08-09T14:57:52.729Z,2.63
2018-08-09T15:00:21.882Z,2.70
2018-08-09T15:02:50.685Z,2.60
2018-08-09T15:05:19.486Z,2.20
2018-08-09T15:07:48.590Z,2.20
2018-08-09T15:10:18.466Z,2.90
2018-08-09T15:12:47.566Z,2.50
2018-08-09T15:15:16.431Z,2.40
2018-08-09T15:17:45.546Z,2.57
2018-08-09T15:20:14.867Z,3.20
2018-08-09T15:22:44.091Z,2.90
2018-08-09T15:25:13.378Z,2.50
2018-08-09T15:27:42.294Z,2.43
2018-08-09T15:30:16.573Z,2.67
2018-08-09T15:32:45.937Z,2.20
2018-08-09T15:35:15.000Z,2.60
2018-08-09T15:37:44.017Z,2.37
2018-08-09T15:40:14.280Z,2.50
2018-08-09T15:42:43.714Z,2.63
2018-08-09T15:45:14.268Z,2.53
2018-08-09T15:47:43.754Z,2.47
2018-08-09T15:50:14.850Z,2.50
2018-08-09T15:52:43.959Z,2.73
2018-08-09T15:55:13.771Z,2.63
2018-08-09T15:57:43.079Z,2.57
2018-08-09T16:00:17.438Z,2.50
2018-08-09T16:02:46.807Z,2.73
2018-08-09T16:05:16.206Z,2.77
2018-08-09T16:07:45.546Z,2.40
2018-08-09T16:10:15.931Z,2.80
2018-08-09T16:12:45.756Z,2.57
2018-08-09T16:15:16.405Z,2.50
2018-08-09T16:17:46.620Z,2.23
2018-08-09T16:20:15.938Z,2.70
2018-08-09T16:22:45.588Z,2.50
2018-08-09T16:25:17.014Z,2.50
2018-08-09T16:27:46.245Z,2.60
2018-08-09T16:30:18.240Z,2.70
2018-08-09T16:32:47.338Z,2.50
2018-08-09T16:35:16.755Z,2.60
2018-08-09T16:37:46.640Z,2.70
2018-08-09T16:40:19.142Z,2.90
2018-08-09T16:42:48.461Z,2.67
2018-08-09T16:45:18.903Z,2.73
2018-08-09T16:47:48.273Z,2.40
2018-08-09T16:50:19.451Z,2.67
2018-08-09T16:52:49.558Z,2.77
2018-08-09T16:55:19.638Z,2.77
2018-08-09T16:57:48.817Z,2.40
2018-08-09T17:00:20.282Z,2.80
2018-08-09T17:02:49.554Z,2.73
2018-08-09T17:05:21.665Z,2.70
2018-08-09T17:07:50.815Z,2.97
2018-08-09T17:10:21.024Z,2.83
2018-08-09T17:12:50.207Z,2.63
2018-08-09T17:15:21.571Z,2.53
2018-08-09T17:17:50.633Z,2.60
2018-08-09T17:20:24.184Z,2.80
2018-08-09T17:22:53.414Z,2.40
2018-08-09T17:25:22.689Z,2.50
2018-08-09T17:27:52.229Z,2.30
2018-08-09T17:30:23.358Z,2.40
2018-08-09T17:32:52.440Z,2.43
2018-08-09T17:35:21.974Z,2.63
2018-08-09T17:37:51.117Z,2.20
2018-08-09T17:40:22.758Z,2.47
2018-08-09T17:42:52.585Z,2.87
2018-08-09T17:45:24.435Z,2.83
2018-08-09T17:47:53.751Z,2.50
2018-08-09T17:50:22.941Z,3.00
2018-08-09T17:52:51.928Z,2.90
2018-08-09T17:55:21.178Z,2.80
2018-08-09T17:57:50.434Z,2.57
2018-08-09T18:00:22.717Z,2.80
2018-08-09T18:02:51.927Z,2.70
2018-08-09T18:05:20.991Z,3.20
2018-08-09T18:07:50.289Z,3.07
2018-08-09T18:10:23.363Z,3.10
2018-08-09T18:12:52.669Z,3.17
2018-08-09T18:15:22.957Z,3.30
2018-08-09T18:17:52.324Z,2.37
2018-08-09T18:20:23.243Z,2.67
2018-08-09T18:22:52.611Z,3.10
2018-08-09T18:25:21.899Z,2.50
2018-08-09T18:27:50.995Z,2.60
2018-08-09T18:30:20.742Z,2.33
2018-08-09T18:32:49.850Z,2.40
2018-08-09T18:35:20.656Z,2.50
2018-08-09T18:37:49.863Z,2.60
2018-08-09T18:40:23.847Z,2.40
2018-08-09T18:42:53.113Z,2.57
2018-08-09T18:45:22.825Z,2.83
2018-08-09T18:47:51.957Z,3.37
2018-08-09T18:50:22.722Z,2.40
2018-08-09T18:52:51.979Z,2.53
2018-08-09T18:55:21.430Z,2.93
2018-08-09T18:57:50.715Z,2.83
2018-08-09T19:00:23.889Z,2.53
2018-08-09T19:02:53.387Z,2.70
2018-08-09T19:05:22.625Z,2.60
2018-08-09T19:07:51.893Z,2.80
2018-08-09T19:10:24.355Z,2.30
2018-08-09T19:12:53.458Z,2.80
2018-08-09T19:15:22.569Z,2.83
2018-08-09T19:17:52.107Z,2.90
2018-08-09T19:20:23.943Z,3.10
2018-08-09T19:22:53.325Z,2.63
2018-08-09T19:25:22.658Z,2.63
2018-08-09T19:27:51.908Z,2.80
2018-08-09T19:30:25.416Z,2.50
2018-08-09T19:32:54.775Z,2.67
2018-08-09T19:35:24.461Z,2.60
2018-08-09T19:37:53.703Z,2.37
2018-08-09T19:40:28.543Z,2.40
2018-08-09T19:42:57.856Z,2.60
2018-08-09T19:45:27.194Z,2.50
2018-08-09T19:47:56.137Z,2.57
2018-08-09T19:50:25.593Z,2.70
2018-08-09T19:52:54.701Z,2.37
2018-08-09T19:55:25.727Z,2.80
2018-08-09T19:57:55.035Z,3.00
2018-08-09T20:00:28.067Z,2.70
2018-08-09T20:02:57.255Z,2.67
2018-08-09T20:05:26.663Z,2.60
2018-08-09T20:07:56.097Z,2.53
2018-08-09T20:10:25.344Z,2.63
2018-08-09T20:12:54.702Z,3.00
2018-08-09T20:15:24.434Z,2.40
2018-08-09T20:17:53.482Z,2.90
2018-08-09T20:20:24.136Z,2.50
2018-08-09T20:22:53.454Z,2.67
2018-08-09T20:25:22.268Z,2.20
2018-08-09T20:27:51.461Z,2.37
2018-08-09T20:30:20.826Z,2.70
2018-08-09T20:32:50.171Z,2.10
2018-08-09T20:35:20.672Z,2.50
2018-08-09T20:37:50.374Z,2.20
2018-08-09T20:40:20.101Z,2.50
2018-08-09T20:42:50.234Z,2.50
2018-08-09T20:45:20.403Z,2.30
2018-08-09T20:47:49.498Z,2.37
2018-08-09T20:50:26.296Z,2.57
2018-08-09T20:52:55.498Z,2.90
2018-08-09T20:55:24.574Z,2.43
2018-08-09T20:57:55.001Z,2.70
2018-08-09T21:00:26.725Z,2.40
2018-08-09T21:02:57.261Z,2.60
2018-08-09T21:05:30.719Z,2.30
2018-08-09T21:07:59.875Z,2.77
2018-08-09T21:10:29.247Z,2.40
2018-08-09T21:12:58.519Z,2.30
2018-08-09T21:15:27.503Z,2.67
2018-08-09T21:17:56.662Z,2.27
2018-08-09T21:20:25.790Z,2.43
2018-08-09T21:22:55.083Z,2.80
2018-08-09T21:25:24.229Z,2.77
2018-08-09T21:27:53.156Z,2.53
2018-08-09T21:30:23.466Z,2.47
2018-08-09T21:32:52.803Z,2.80
2018-08-09T21:35:21.520Z,2.60
2018-08-09T21:37:50.806Z,2.67
2018-08-09T21:40:20.035Z,2.33
2018-08-09T21:42:48.831Z,2.60
2018-08-09T21:45:18.812Z,2.37
2018-08-09T21:47:48.006Z,2.43
2018-08-09T21:50:21.032Z,2.40
2018-08-09T21:52:50.246Z,2.43
2018-08-09T21:55:19.218Z,2.50
2018-08-09T21:57:48.697Z,2.53
2018-08-09T22:00:37.571Z,2.60
2018-08-09T22:03:06.908Z,2.50
2018-08-09T22:05:41.184Z,2.53
2018-08-09T22:08:15.466Z,2.57
2018-08-09T22:10:49.396Z,2.40
2018-08-09T22:13:23.695Z,2.63
2018-08-09T22:15:57.928Z,2.60
2018-08-09T22:18:32.172Z,2.47
2018-08-09T22:21:06.325Z,2.40
2018-08-09T22:23:35.174Z,2.57
2018-08-09T22:26:04.437Z,2.27
2018-08-09T22:28:34.095Z,2.23
2018-08-09T22:31:03.346Z,2.50
2018-08-09T22:33:32.600Z,2.70
2018-08-09T22:36:01.860Z,2.30
2018-08-09T22:38:31.661Z,2.40
2018-08-09T22:41:01.867Z,2.40
2018-08-09T22:43:30.832Z,2.47
2018-08-09T22:45:59.880Z,2.50
2018-08-09T22:48:29.154Z,2.53
2018-08-09T22:50:58.158Z,2.80
2018-08-09T22:53:27.337Z,2.63
2018-08-09T22:55:56.579Z,2.40
2018-08-09T22:58:25.843Z,2.50
2018-08-09T23:37:51.587Z,2.80
2018-08-09T23:40:20.590Z,2.60
2018-08-09T23:42:49.762Z,3.00
2018-08-09T23:45:19.061Z,2.73
2018-08-09T23:47:48.035Z,2.97
2018-08-09T23:50:17.346Z,3.20
2018-08-09T23:52:46.534Z,3.20
2018-08-09T23:55:17.662Z,2.80
2018-08-09T23:57:47.030Z,2.77
